sensor_id;sensor_type;location;lat;lon;timestamp;pressure;altitude;pressure_sealevel;temperature;humidity
46464;BME280;32161;48.148;-1.554;2023-06-14T00:01:52;100664.03;;;18.81;78.57
46464;BME280;32161;48.148;-1.554;2023-06-14T00:04:21;100663.22;;;18.80;78.52
46464;BME280;32161;48.148;-1.554;2023-06-14T00:06:51;100667.06;;;18.79;78.11
46464;BME280;32161;48.148;-1.554;2023-06-14T00:09:19;100661.84;;;18.77;78.67
46464;BME280;32161;48.148;-1.554;2023-06-14T00:11:46;100668.16;;;18.78;78.04
46464;BME280;32161;48.148;-1.554;2023-06-14T00:14:14;100662.66;;;18.78;78.10
46464;BME280;32161;48.148;-1.554;2023-06-14T00:16:43;100668.16;;;18.78;78.09
46464;BME280;32161;48.148;-1.554;2023-06-14T00:19:11;100664.91;;;18.76;77.78
46464;BME280;32161;48.148;-1.554;2023-06-14T00:21:38;100663.81;;;18.72;78.48
46464;BME280;32161;48.148;-1.554;2023-06-14T00:24:07;100660.81;;;18.63;79.02
46464;BME280;32161;48.148;-1.554;2023-06-14T00:26:35;100660.03;;;18.58;79.35
46464;BME280;32161;48.148;-1.554;2023-06-14T00:29:02;100664.72;;;18.52;79.18
46464;BME280;32161;48.148;-1.554;2023-06-14T00:31:30;100666.97;;;18.50;79.53
46464;BME280;32161;48.148;-1.554;2023-06-14T00:33:59;100666.41;;;18.48;78.99
46464;BME280;32161;48.148;-1.554;2023-06-14T00:36:27;100663.13;;;18.46;79.20
46464;BME280;32161;48.148;-1.554;2023-06-14T00:38:54;100667.81;;;18.45;79.65
46464;BME280;32161;48.148;-1.554;2023-06-14T00:41:22;100666.75;;;18.41;79.93
46464;BME280;32161;48.148;-1.554;2023-06-14T00:43:50;100662.31;;;18.40;79.78
46464;BME280;32161;48.148;-1.554;2023-06-14T00:46:18;100664.81;;;18.37;80.47
46464;BME280;32161;48.148;-1.554;2023-06-14T00:48:46;100658.81;;;18.35;80.44
46464;BME280;32161;48.148;-1.554;2023-06-14T00:51:16;100664.31;;;18.35;80.63
46464;BME280;32161;48.148;-1.554;2023-06-14T00:53:44;100662.66;;;18.34;80.30
46464;BME280;32161;48.148;-1.554;2023-06-14T00:56:13;100662.13;;;18.32;80.26
46464;BME280;32161;48.148;-1.554;2023-06-14T00:58:41;100664.34;;;18.29;80.80
46464;BME280;32161;48.148;-1.554;2023-06-14T01:01:09;100667.66;;;18.26;80.81
46464;BME280;32161;48.148;-1.554;2023-06-14T01:03:37;100671.25;;;18.22;81.45
46464;BME280;32161;48.148;-1.554;2023-06-14T01:06:13;100665.22;;;18.20;81.38
46464;BME280;32161;48.148;-1.554;2023-06-14T01:09:03;100667.13;;;18.19;81.78
46464;BME280;32161;48.148;-1.554;2023-06-14T01:11:44;100660.31;;;18.12;82.38
46464;BME280;32161;48.148;-1.554;2023-06-14T01:14:16;100660.56;;;18.10;82.75
46464;BME280;32161;48.148;-1.554;2023-06-14T01:16:45;100659.78;;;18.04;83.30
46464;BME280;32161;48.148;-1.554;2023-06-14T01:19:14;100657.31;;;18.03;82.87
46464;BME280;32161;48.148;-1.554;2023-06-14T01:21:43;100663.66;;;17.98;83.63
46464;BME280;32161;48.148;-1.554;2023-06-14T01:24:12;100656.81;;;17.96;83.85
46464;BME280;32161;48.148;-1.554;2023-06-14T01:26:40;100663.94;;;17.97;83.20
46464;BME280;32161;48.148;-1.554;2023-06-14T01:29:12;100653.50;;;17.94;83.58
46464;BME280;32161;48.148;-1.554;2023-06-14T01:31:42;100651.31;;;17.91;83.53
46464;BME280;32161;48.148;-1.554;2023-06-14T01:34:11;100660.13;;;17.88;84.18
46464;BME280;32161;48.148;-1.554;2023-06-14T01:36:42;100662.59;;;17.89;84.77
46464;BME280;32161;48.148;-1.554;2023-06-14T01:39:14;100661.78;;;17.89;84.62
46464;BME280;32161;48.148;-1.554;2023-06-14T01:41:43;100660.97;;;17.88;83.74
46464;BME280;32161;48.148;-1.554;2023-06-14T01:44:13;100661.78;;;17.89;83.79
46464;BME280;32161;48.148;-1.554;2023-06-14T01:46:42;100667.53;;;17.87;84.07
46464;BME280;32161;48.148;-1.554;2023-06-14T01:49:11;100661.81;;;17.78;85.36
46464;BME280;32161;48.148;-1.554;2023-06-14T01:51:39;100654.09;;;17.75;85.53
46464;BME280;32161;48.148;-1.554;2023-06-14T01:54:06;100656.03;;;17.75;85.76
46464;BME280;32161;48.148;-1.554;2023-06-14T01:56:35;100654.97;;;17.76;85.53
46464;BME280;32161;48.148;-1.554;2023-06-14T01:59:03;100649.16;;;17.72;85.92
46464;BME280;32161;48.148;-1.554;2023-06-14T02:01:30;100650.81;;;17.63;86.89
46464;BME280;32161;48.148;-1.554;2023-06-14T02:04:00;100651.41;;;17.55;88.08
46464;BME280;32161;48.148;-1.554;2023-06-14T02:06:28;100655.81;;;17.51;89.19
46464;BME280;32161;48.148;-1.554;2023-06-14T02:08:55;100659.13;;;17.53;88.35
46464;BME280;32161;48.148;-1.554;2023-06-14T02:11:23;100647.84;;;17.54;87.01
46464;BME280;32161;48.148;-1.554;2023-06-14T02:13:52;100643.69;;;17.62;86.89
46464;BME280;32161;48.148;-1.554;2023-06-14T02:16:21;100654.13;;;17.60;86.88
46464;BME280;32161;48.148;-1.554;2023-06-14T02:18:48;100654.13;;;17.60;87.60
46464;BME280;32161;48.148;-1.554;2023-06-14T02:21:17;100648.38;;;17.62;86.93
46464;BME280;32161;48.148;-1.554;2023-06-14T02:23:45;100648.63;;;17.60;86.36
46464;BME280;32161;48.148;-1.554;2023-06-14T02:26:12;100646.16;;;17.58;86.00
46464;BME280;32161;48.148;-1.554;2023-06-14T02:28:40;100646.47;;;17.57;87.58
46464;BME280;32161;48.148;-1.554;2023-06-14T02:31:08;100641.78;;;17.57;87.54
46464;BME280;32161;48.148;-1.554;2023-06-14T02:33:36;100640.16;;;17.56;86.42
46464;BME280;32161;48.148;-1.554;2023-06-14T02:36:04;100650.88;;;17.53;86.30
46464;BME280;32161;48.148;-1.554;2023-06-14T02:38:32;100655.00;;;17.50;86.18
46464;BME280;32161;48.148;-1.554;2023-06-14T02:40:59;100654.16;;;17.55;87.14
46464;BME280;32161;48.148;-1.554;2023-06-14T02:43:29;100652.25;;;17.50;87.27
46464;BME280;32161;48.148;-1.554;2023-06-14T02:45:57;100650.59;;;17.44;87.65
46464;BME280;32161;48.148;-1.554;2023-06-14T02:48:25;100652.81;;;17.42;88.01
46464;BME280;32161;48.148;-1.554;2023-06-14T02:50:53;100658.56;;;17.41;87.85
46464;BME280;32161;48.148;-1.554;2023-06-14T02:53:22;100648.97;;;17.33;88.63
46464;BME280;32161;48.148;-1.554;2023-06-14T02:55:50;100653.66;;;17.32;88.74
46464;BME280;32161;48.148;-1.554;2023-06-14T02:58:18;100647.88;;;17.29;88.95
46464;BME280;32161;48.148;-1.554;2023-06-14T03:00:45;100648.16;;;17.27;89.03
46464;BME280;32161;48.148;-1.554;2023-06-14T03:03:13;100639.94;;;17.22;89.79
46464;BME280;32161;48.148;-1.554;2023-06-14T03:05:47;100639.94;;;17.17;89.12
46464;BME280;32161;48.148;-1.554;2023-06-14T03:08:16;100645.72;;;17.16;89.77
46464;BME280;32161;48.148;-1.554;2023-06-14T03:10:46;100645.97;;;17.14;90.14
46464;BME280;32161;48.148;-1.554;2023-06-14T03:13:15;100652.03;;;17.16;90.27
46464;BME280;32161;48.148;-1.554;2023-06-14T03:15:43;100649.81;;;17.13;90.80
46464;BME280;32161;48.148;-1.554;2023-06-14T03:18:11;100642.97;;;17.11;90.69
46464;BME280;32161;48.148;-1.554;2023-06-14T03:20:39;100643.25;;;17.09;90.87
46464;BME280;32161;48.148;-1.554;2023-06-14T03:23:08;100643.78;;;17.06;91.37
46464;BME280;32161;48.148;-1.554;2023-06-14T03:25:36;100639.69;;;17.08;91.19
46464;BME280;32161;48.148;-1.554;2023-06-14T03:28:04;100647.09;;;17.08;91.14
46464;BME280;32161;48.148;-1.554;2023-06-14T03:30:32;100650.94;;;17.07;91.55
46464;BME280;32161;48.148;-1.554;2023-06-14T03:33:00;100647.91;;;17.08;91.35
46464;BME280;32161;48.148;-1.554;2023-06-14T03:35:28;100659.72;;;17.09;91.09
46464;BME280;32161;48.148;-1.554;2023-06-14T03:37:56;100663.59;;;17.03;91.54
46464;BME280;32161;48.148;-1.554;2023-06-14T03:40:25;100665.22;;;16.99;91.85
46464;BME280;32161;48.148;-1.554;2023-06-14T03:42:53;100658.91;;;16.98;91.87
46464;BME280;32161;48.148;-1.554;2023-06-14T03:45:21;100669.06;;;16.98;91.36
46464;BME280;32161;48.148;-1.554;2023-06-14T03:47:49;100667.13;;;16.98;90.79
46464;BME280;32161;48.148;-1.554;2023-06-14T03:50:18;100670.72;;;16.99;90.37
46464;BME280;32161;48.148;-1.554;2023-06-14T03:52:47;100666.06;;;16.99;90.68
46464;BME280;32161;48.148;-1.554;2023-06-14T03:55:16;100677.59;;;16.96;90.34
46464;BME280;32161;48.148;-1.554;2023-06-14T03:57:45;100673.75;;;16.92;90.97
46464;BME280;32161;48.148;-1.554;2023-06-14T04:00:14;100669.06;;;16.98;91.13
46464;BME280;32161;48.148;-1.554;2023-06-14T04:02:41;100676.22;;;16.89;92.08
46464;BME280;32161;48.148;-1.554;2023-06-14T04:05:10;100675.59;;;16.71;92.49
46464;BME280;32161;48.148;-1.554;2023-06-14T04:07:37;100668.47;;;16.70;93.61
46464;BME280;32161;48.148;-1.554;2023-06-14T04:10:07;100673.97;;;16.70;93.90
46464;BME280;32161;48.148;-1.554;2023-06-14T04:12:35;100677.84;;;16.79;93.14
46464;BME280;32161;48.148;-1.554;2023-06-14T04:15:05;100678.09;;;16.83;93.12
46464;BME280;32161;48.148;-1.554;2023-06-14T04:17:33;100676.75;;;16.91;92.50
46464;BME280;32161;48.148;-1.554;2023-06-14T04:20:02;100677.56;;;16.86;92.79
46464;BME280;32161;48.148;-1.554;2023-06-14T04:22:31;100684.44;;;16.89;92.66
46464;BME280;32161;48.148;-1.554;2023-06-14T04:24:59;100676.22;;;16.89;92.58
46464;BME280;32161;48.148;-1.554;2023-06-14T04:27:27;100676.75;;;16.86;92.81
46464;BME280;32161;48.148;-1.554;2023-06-14T04:29:57;100684.44;;;16.83;93.21
46464;BME280;32161;48.148;-1.554;2023-06-14T04:32:27;100682.75;;;16.72;94.04
46464;BME280;32161;48.148;-1.554;2023-06-14T04:34:55;100690.44;;;16.75;94.73
46464;BME280;32161;48.148;-1.554;2023-06-14T04:37:23;100681.97;;;16.77;94.49
46464;BME280;32161;48.148;-1.554;2023-06-14T04:39:54;100692.66;;;16.78;93.85
46464;BME280;32161;48.148;-1.554;2023-06-14T04:42:22;100693.47;;;16.79;94.07
46464;BME280;32161;48.148;-1.554;2023-06-14T04:44:51;100688.81;;;16.79;94.14
46464;BME280;32161;48.148;-1.554;2023-06-14T04:47:22;100692.13;;;16.76;94.90
46464;BME280;32161;48.148;-1.554;2023-06-14T04:49:52;100703.63;;;16.78;94.75
46464;BME280;32161;48.148;-1.554;2023-06-14T04:52:20;100703.09;;;16.81;94.63
46464;BME280;32161;48.148;-1.554;2023-06-14T04:54:49;100708.03;;;16.90;94.06
46464;BME280;32161;48.148;-1.554;2023-06-14T04:57:17;100717.38;;;16.89;94.26
46464;BME280;32161;48.148;-1.554;2023-06-14T04:59:48;100713.81;;;16.88;94.54
46464;BME280;32161;48.148;-1.554;2023-06-14T05:02:21;100724.50;;;16.95;94.24
46464;BME280;32161;48.148;-1.554;2023-06-14T05:04:51;100713.00;;;16.98;94.42
46464;BME280;32161;48.148;-1.554;2023-06-14T05:07:19;100714.09;;;17.02;94.33
46464;BME280;32161;48.148;-1.554;2023-06-14T05:09:50;100715.75;;;17.08;94.44
46464;BME280;32161;48.148;-1.554;2023-06-14T05:12:17;100722.06;;;17.08;94.04
46464;BME280;32161;48.148;-1.554;2023-06-14T05:14:45;100724.00;;;17.08;94.23
46464;BME280;32161;48.148;-1.554;2023-06-14T05:17:13;100728.94;;;17.11;94.39
46464;BME280;32161;48.148;-1.554;2023-06-14T05:19:40;100729.47;;;17.13;94.19
46464;BME280;32161;48.148;-1.554;2023-06-14T05:22:09;100725.91;;;17.18;93.86
46464;BME280;32161;48.148;-1.554;2023-06-14T05:24:37;100718.50;;;17.18;94.04
46464;BME280;32161;48.148;-1.554;2023-06-14T05:27:05;100721.53;;;17.27;94.10
46464;BME280;32161;48.148;-1.554;2023-06-14T05:29:33;100727.56;;;17.34;94.00
46464;BME280;32161;48.148;-1.554;2023-06-14T05:32:00;100729.47;;;17.39;93.98
46464;BME280;32161;48.148;-1.554;2023-06-14T05:34:28;100728.34;;;17.45;93.67
46464;BME280;32161;48.148;-1.554;2023-06-14T05:36:55;100734.97;;;17.49;93.90
46464;BME280;32161;48.148;-1.554;2023-06-14T05:39:24;100726.72;;;17.64;93.35
46464;BME280;32161;48.148;-1.554;2023-06-14T05:41:52;100734.66;;;17.66;92.84
46464;BME280;32161;48.148;-1.554;2023-06-14T05:44:19;100731.66;;;17.62;92.28
46464;BME280;32161;48.148;-1.554;2023-06-14T05:46:47;100728.91;;;17.62;92.72
46464;BME280;32161;48.148;-1.554;2023-06-14T05:49:14;100734.38;;;17.67;93.63
46464;BME280;32161;48.148;-1.554;2023-06-14T05:51:42;100742.09;;;17.75;94.03
46464;BME280;32161;48.148;-1.554;2023-06-14T05:54:09;100742.59;;;17.93;93.15
46464;BME280;32161;48.148;-1.554;2023-06-14T05:56:38;100744.25;;;17.99;92.61
46464;BME280;32161;48.148;-1.554;2023-06-14T05:59:06;100744.75;;;18.06;92.87
46464;BME280;32161;48.148;-1.554;2023-06-14T06:01:33;100740.56;;;18.24;92.05
46464;BME280;32161;48.148;-1.554;2023-06-14T06:04:02;100748.53;;;18.30;91.56
46464;BME280;32161;48.148;-1.554;2023-06-14T06:06:30;100739.13;;;18.37;91.67
46464;BME280;32161;48.148;-1.554;2023-06-14T06:08:58;100738.00;;;18.43;90.58
46464;BME280;32161;48.148;-1.554;2023-06-14T06:11:26;100741.06;;;18.36;90.87
46464;BME280;32161;48.148;-1.554;2023-06-14T06:13:55;100737.72;;;18.49;89.91
46464;BME280;32161;48.148;-1.554;2023-06-14T06:16:23;100747.88;;;18.54;90.21
46464;BME280;32161;48.148;-1.554;2023-06-14T06:18:50;100745.06;;;18.59;90.72
46464;BME280;32161;48.148;-1.554;2023-06-14T06:21:18;100754.97;;;18.70;90.09
46464;BME280;32161;48.148;-1.554;2023-06-14T06:23:46;100762.63;;;18.78;90.25
46464;BME280;32161;48.148;-1.554;2023-06-14T06:26:13;100756.75;;;18.95;88.84
46464;BME280;32161;48.148;-1.554;2023-06-14T06:28:41;100758.63;;;19.00;88.73
46464;BME280;32161;48.148;-1.554;2023-06-14T06:31:10;100763.53;;;19.08;88.00
46464;BME280;32161;48.148;-1.554;2023-06-14T06:33:38;100766.00;;;19.10;88.80
46464;BME280;32161;48.148;-1.554;2023-06-14T06:36:06;100760.66;;;19.23;88.93
46464;BME280;32161;48.148;-1.554;2023-06-14T06:38:34;100756.66;;;19.40;87.54
46464;BME280;32161;48.148;-1.554;2023-06-14T06:41:02;100762.59;;;19.52;86.94
46464;BME280;32161;48.148;-1.554;2023-06-14T06:43:30;100763.09;;;19.64;87.12
46464;BME280;32161;48.148;-1.554;2023-06-14T06:45:57;100767.88;;;19.83;85.75
46464;BME280;32161;48.148;-1.554;2023-06-14T06:48:26;100766.38;;;19.95;85.74
46464;BME280;32161;48.148;-1.554;2023-06-14T06:50:54;100778.25;;;19.91;85.87
46464;BME280;32161;48.148;-1.554;2023-06-14T06:53:22;100776.94;;;20.12;85.47
46464;BME280;32161;48.148;-1.554;2023-06-14T06:55:50;100767.13;;;20.25;83.58
46464;BME280;32161;48.148;-1.554;2023-06-14T06:58:18;100765.47;;;20.24;82.78
46464;BME280;32161;48.148;-1.554;2023-06-14T07:00:48;100772.88;;;20.29;83.64
46464;BME280;32161;48.148;-1.554;2023-06-14T07:03:15;100768.41;;;20.33;83.42
46464;BME280;32161;48.148;-1.554;2023-06-14T07:05:45;100765.72;;;20.52;82.63
46464;BME280;32161;48.148;-1.554;2023-06-14T07:08:12;100770.06;;;20.58;82.51
46464;BME280;32161;48.148;-1.554;2023-06-14T07:10:40;100763.44;;;20.78;82.22
46464;BME280;32161;48.148;-1.554;2023-06-14T07:13:08;100765.47;;;20.91;82.25
46464;BME280;32161;48.148;-1.554;2023-06-14T07:15:35;100769.31;;;20.90;81.41
46464;BME280;32161;48.148;-1.554;2023-06-14T07:18:03;100775.16;;;21.07;80.94
46464;BME280;32161;48.148;-1.554;2023-06-14T07:20:33;100782.22;;;21.13;81.25
46464;BME280;32161;48.148;-1.554;2023-06-14T07:23:01;100790.38;;;21.24;82.38
46464;BME280;32161;48.148;-1.554;2023-06-14T07:25:29;100797.31;;;21.40;82.16
46464;BME280;32161;48.148;-1.554;2023-06-14T07:27:57;100791.25;;;21.57;81.64
46464;BME280;32161;48.148;-1.554;2023-06-14T07:30:24;100791.88;;;21.67;80.83
46464;BME280;32161;48.148;-1.554;2023-06-14T07:32:53;100793.88;;;21.94;79.40
46464;BME280;32161;48.148;-1.554;2023-06-14T07:35:20;100796.03;;;21.98;79.13
46464;BME280;32161;48.148;-1.554;2023-06-14T07:37:48;100798.75;;;22.16;78.30
46464;BME280;32161;48.148;-1.554;2023-06-14T07:40:17;100808.63;;;22.23;77.58
46464;BME280;32161;48.148;-1.554;2023-06-14T07:42:45;100804.53;;;22.34;77.38
46464;BME280;32161;48.148;-1.554;2023-06-14T07:45:14;100801.75;;;22.34;77.67
46464;BME280;32161;48.148;-1.554;2023-06-14T07:47:41;100806.66;;;22.37;79.46
46464;BME280;32161;48.148;-1.554;2023-06-14T07:50:09;100808.59;;;22.50;78.87
46464;BME280;32161;48.148;-1.554;2023-06-14T07:52:37;100809.22;;;22.61;77.54
46464;BME280;32161;48.148;-1.554;2023-06-14T07:55:06;100804.91;;;22.69;76.35
46464;BME280;32161;48.148;-1.554;2023-06-14T07:57:35;100811.88;;;22.80;77.02
46464;BME280;32161;48.148;-1.554;2023-06-14T08:00:04;100808.25;;;22.93;77.43
46464;BME280;32161;48.148;-1.554;2023-06-14T08:02:33;100803.78;;;23.20;75.45
46464;BME280;32161;48.148;-1.554;2023-06-14T08:05:01;100811.22;;;23.10;76.32
46464;BME280;32161;48.148;-1.554;2023-06-14T08:07:28;100809.44;;;23.14;77.34
46464;BME280;32161;48.148;-1.554;2023-06-14T08:09:56;100809.50;;;23.23;77.33
46464;BME280;32161;48.148;-1.554;2023-06-14T08:12:23;100809.91;;;23.30;78.06
46464;BME280;32161;48.148;-1.554;2023-06-14T08:14:52;100819.91;;;23.40;77.13
46464;BME280;32161;48.148;-1.554;2023-06-14T08:17:20;100809.72;;;23.49;76.51
46464;BME280;32161;48.148;-1.554;2023-06-14T08:19:47;100816.00;;;23.63;76.19
46464;BME280;32161;48.148;-1.554;2023-06-14T08:22:15;100810.97;;;23.43;75.57
46464;BME280;32161;48.148;-1.554;2023-06-14T08:24:44;100809.44;;;23.59;75.61
46464;BME280;32161;48.148;-1.554;2023-06-14T08:27:11;100817.28;;;23.80;76.75
46464;BME280;32161;48.148;-1.554;2023-06-14T08:29:39;100814.13;;;23.95;72.76
46464;BME280;32161;48.148;-1.554;2023-06-14T08:32:09;100818.75;;;24.08;73.66
46464;BME280;32161;48.148;-1.554;2023-06-14T08:34:36;100816.84;;;24.18;73.65
46464;BME280;32161;48.148;-1.554;2023-06-14T08:37:04;100819.66;;;24.26;73.62
46464;BME280;32161;48.148;-1.554;2023-06-14T08:39:32;100819.56;;;24.40;73.82
46464;BME280;32161;48.148;-1.554;2023-06-14T08:42:02;100818.47;;;24.58;73.65
46464;BME280;32161;48.148;-1.554;2023-06-14T08:44:30;100817.38;;;24.77;73.82
46464;BME280;32161;48.148;-1.554;2023-06-14T08:46:58;100816.09;;;25.00;72.86
46464;BME280;32161;48.148;-1.554;2023-06-14T08:49:28;100809.72;;;25.08;72.47
46464;BME280;32161;48.148;-1.554;2023-06-14T08:51:59;100818.28;;;25.29;70.74
46464;BME280;32161;48.148;-1.554;2023-06-14T08:54:28;100816.44;;;25.25;70.79
46464;BME280;32161;48.148;-1.554;2023-06-14T08:56:57;100818.59;;;25.28;69.97
46464;BME280;32161;48.148;-1.554;2023-06-14T08:59:26;100819.41;;;25.46;68.49
46464;BME280;32161;48.148;-1.554;2023-06-14T09:01:54;100828.56;;;25.46;71.65
46464;BME280;32161;48.148;-1.554;2023-06-14T09:04:23;100818.41;;;25.50;70.20
46464;BME280;32161;48.148;-1.554;2023-06-14T09:06:57;100821.34;;;25.63;70.42
46464;BME280;32161;48.148;-1.554;2023-06-14T09:09:24;100824.94;;;25.72;68.97
46464;BME280;32161;48.148;-1.554;2023-06-14T09:11:52;100828.34;;;25.86;69.15
46464;BME280;32161;48.148;-1.554;2023-06-14T09:14:20;100826.84;;;25.97;70.15
46464;BME280;32161;48.148;-1.554;2023-06-14T09:16:47;100815.41;;;25.99;69.84
46464;BME280;32161;48.148;-1.554;2023-06-14T09:19:21;100821.56;;;26.13;69.85
46464;BME280;32161;48.148;-1.554;2023-06-14T09:21:50;100821.03;;;26.20;69.61
46464;BME280;32161;48.148;-1.554;2023-06-14T09:24:20;100819.38;;;26.27;67.69
46464;BME280;32161;48.148;-1.554;2023-06-14T09:26:48;100819.00;;;26.46;67.82
46464;BME280;32161;48.148;-1.554;2023-06-14T09:29:17;100817.66;;;26.44;66.43
46464;BME280;32161;48.148;-1.554;2023-06-14T09:31:46;100817.25;;;26.63;66.44
46464;BME280;32161;48.148;-1.554;2023-06-14T09:34:16;100823.19;;;26.61;67.96
46464;BME280;32161;48.148;-1.554;2023-06-14T09:36:45;100823.78;;;26.67;65.95
46464;BME280;32161;48.148;-1.554;2023-06-14T09:39:18;100829.72;;;26.65;67.59
46464;BME280;32161;48.148;-1.554;2023-06-14T09:41:46;100823.19;;;26.82;66.99
46464;BME280;32161;48.148;-1.554;2023-06-14T09:44:14;100833.84;;;26.89;67.17
46464;BME280;32161;48.148;-1.554;2023-06-14T09:46:43;100833.44;;;26.99;65.17
46464;BME280;32161;48.148;-1.554;2023-06-14T09:49:11;100835.94;;;27.21;64.79
46464;BME280;32161;48.148;-1.554;2023-06-14T09:51:44;100836.03;;;27.25;65.11
46464;BME280;32161;48.148;-1.554;2023-06-14T09:54:16;100834.91;;;27.26;64.56
46464;BME280;32161;48.148;-1.554;2023-06-14T09:56:49;100832.63;;;27.40;65.86
46464;BME280;32161;48.148;-1.554;2023-06-14T09:59:25;100831.13;;;27.64;65.37
46464;BME280;32161;48.148;-1.554;2023-06-14T10:01:58;100831.31;;;27.80;64.72
46464;BME280;32161;48.148;-1.554;2023-06-14T10:04:30;100835.44;;;27.94;64.80
46464;BME280;32161;48.148;-1.554;2023-06-14T10:06:59;100836.50;;;28.02;64.85
46464;BME280;32161;48.148;-1.554;2023-06-14T10:09:29;100836.16;;;28.16;63.48
46464;BME280;32161;48.148;-1.554;2023-06-14T10:11:58;100837.34;;;28.27;65.32
46464;BME280;32161;48.148;-1.554;2023-06-14T10:14:27;100838.03;;;28.24;63.38
46464;BME280;32161;48.148;-1.554;2023-06-14T10:17:04;100842.63;;;28.41;63.04
46464;BME280;32161;48.148;-1.554;2023-06-14T10:19:54;100848.09;;;28.62;63.83
46464;BME280;32161;48.148;-1.554;2023-06-14T10:22:30;100841.81;;;28.65;62.88
46464;BME280;32161;48.148;-1.554;2023-06-14T10:25:00;100843.19;;;28.83;62.10
46464;BME280;32161;48.148;-1.554;2023-06-14T10:27:29;100849.09;;;28.94;61.41
46464;BME280;32161;48.148;-1.554;2023-06-14T10:30:06;100843.41;;;28.90;62.85
46464;BME280;32161;48.148;-1.554;2023-06-14T10:32:34;100839.56;;;28.95;62.88
46464;BME280;32161;48.148;-1.554;2023-06-14T10:35:05;100841.88;;;29.05;61.32
46464;BME280;32161;48.148;-1.554;2023-06-14T10:37:33;100840.59;;;29.15;61.63
46464;BME280;32161;48.148;-1.554;2023-06-14T10:40:01;100849.44;;;29.29;60.78
46464;BME280;32161;48.148;-1.554;2023-06-14T10:42:33;100848.69;;;29.32;58.98
46464;BME280;32161;48.148;-1.554;2023-06-14T10:45:01;100836.78;;;29.35;58.55
46464;BME280;32161;48.148;-1.554;2023-06-14T10:47:32;100836.44;;;29.37;57.35
46464;BME280;32161;48.148;-1.554;2023-06-14T10:50:06;100835.75;;;29.56;57.87
46464;BME280;32161;48.148;-1.554;2023-06-14T10:52:38;100839.38;;;29.68;56.62
46464;BME280;32161;48.148;-1.554;2023-06-14T10:55:09;100826.00;;;29.78;56.49
46464;BME280;32161;48.148;-1.554;2023-06-14T10:57:42;100824.22;;;29.85;54.08
46464;BME280;32161;48.148;-1.554;2023-06-14T11:00:13;100823.59;;;29.92;55.18
46464;BME280;32161;48.148;-1.554;2023-06-14T11:03:43;100821.53;;;30.05;55.84
46464;BME280;32161;48.148;-1.554;2023-06-14T11:06:22;100819.91;;;30.04;57.48
46464;BME280;32161;48.148;-1.554;2023-06-14T11:09:40;100823.53;;;30.20;56.71
46464;BME280;32161;48.148;-1.554;2023-06-14T11:12:13;100823.72;;;30.27;55.64
46464;BME280;32161;48.148;-1.554;2023-06-14T11:14:46;100823.44;;;30.32;59.54
46464;BME280;32161;48.148;-1.554;2023-06-14T11:17:14;100824.00;;;30.38;56.60
46464;BME280;32161;48.148;-1.554;2023-06-14T11:19:41;100826.97;;;30.45;55.41
46464;BME280;32161;48.148;-1.554;2023-06-14T11:22:09;100827.78;;;30.46;53.95
46464;BME280;32161;48.148;-1.554;2023-06-14T11:24:36;100824.69;;;30.51;54.71
46464;BME280;32161;48.148;-1.554;2023-06-14T11:27:05;100822.88;;;30.58;54.46
46464;BME280;32161;48.148;-1.554;2023-06-14T11:29:34;100818.00;;;30.71;54.55
46464;BME280;32161;48.148;-1.554;2023-06-14T11:32:07;100822.31;;;30.84;54.09
46464;BME280;32161;48.148;-1.554;2023-06-14T11:34:38;100819.22;;;30.89;52.04
46464;BME280;32161;48.148;-1.554;2023-06-14T11:37:06;100811.34;;;30.95;51.35
46464;BME280;32161;48.148;-1.554;2023-06-14T11:39:34;100809.94;;;31.05;50.99
46464;BME280;32161;48.148;-1.554;2023-06-14T11:42:01;100816.50;;;31.12;50.35
46464;BME280;32161;48.148;-1.554;2023-06-14T11:44:29;100815.38;;;31.33;51.66
46464;BME280;32161;48.148;-1.554;2023-06-14T11:46:59;100816.94;;;31.30;50.76
46464;BME280;32161;48.148;-1.554;2023-06-14T11:49:28;100821.91;;;31.37;52.16
46464;BME280;32161;48.148;-1.554;2023-06-14T11:51:58;100811.31;;;31.30;49.79
46464;BME280;32161;48.148;-1.554;2023-06-14T11:54:26;100813.22;;;31.26;50.57
46464;BME280;32161;48.148;-1.554;2023-06-14T11:56:55;100817.44;;;31.36;51.51
46464;BME280;32161;48.148;-1.554;2023-06-14T11:59:23;100808.41;;;31.46;51.57
46464;BME280;32161;48.148;-1.554;2023-06-14T12:01:53;100808.56;;;31.53;48.57
46464;BME280;32161;48.148;-1.554;2023-06-14T12:04:24;100812.75;;;31.63;48.98
46464;BME280;32161;48.148;-1.554;2023-06-14T12:06:55;100811.75;;;31.75;49.55
46464;BME280;32161;48.148;-1.554;2023-06-14T12:09:23;100807.34;;;31.74;47.88
46464;BME280;32161;48.148;-1.554;2023-06-14T12:12:00;100810.66;;;31.79;50.84
46464;BME280;32161;48.148;-1.554;2023-06-14T12:14:29;100804.03;;;31.88;49.41
46464;BME280;32161;48.148;-1.554;2023-06-14T12:17:04;100802.22;;;31.99;48.02
46464;BME280;32161;48.148;-1.554;2023-06-14T12:19:33;100799.59;;;31.87;47.55
46464;BME280;32161;48.148;-1.554;2023-06-14T12:22:05;100795.13;;;31.85;47.62
46464;BME280;32161;48.148;-1.554;2023-06-14T12:24:32;100799.59;;;31.87;46.59
46464;BME280;32161;48.148;-1.554;2023-06-14T12:27:00;100804.09;;;31.91;46.04
46464;BME280;32161;48.148;-1.554;2023-06-14T12:29:29;100800.97;;;31.96;47.32
46464;BME280;32161;48.148;-1.554;2023-06-14T12:31:57;100801.41;;;31.98;49.45
46464;BME280;32161;48.148;-1.554;2023-06-14T12:34:25;100799.81;;;32.01;49.51
46464;BME280;32161;48.148;-1.554;2023-06-14T12:36:54;100802.34;;;32.06;47.58
46464;BME280;32161;48.148;-1.554;2023-06-14T12:39:23;100800.41;;;32.10;48.78
46464;BME280;32161;48.148;-1.554;2023-06-14T12:41:51;100801.63;;;32.13;44.09
46464;BME280;32161;48.148;-1.554;2023-06-14T12:44:19;100804.78;;;32.07;48.12
46464;BME280;32161;48.148;-1.554;2023-06-14T12:46:47;100805.16;;;32.06;45.62
46464;BME280;32161;48.148;-1.554;2023-06-14T12:49:17;100804.78;;;32.07;47.04
46464;BME280;32161;48.148;-1.554;2023-06-14T12:51:46;100802.03;;;32.11;46.46